Danville, CA (94506)

3:28 PM PDT on September 03, 2015 (GMT -0700)
Diablo Highlands Country Estates | | Change Station
CLOSE
Current Station
Personal Weather Station
Location: Danville, CA
Elevation: 541 ft
Nearby Weather Stations

Elev 541 ft 37.82 °N, 121.97 °W | Updated 13 seconds ago

Clear
Clear
74.5 °F
Feels Like 77 °F
N
7.8
Wind Variable Wind from NW
Gusts 7.8 mph

Today
High -- | Low -- °F
--% Chance of Precip.
Yesterday
High -- | Low -- °F
Precip. -- in
6:39 AM 7:34 PM
Waning Gibbous, 66% visible
Pressure 29.85 in
Visibility 10.0 miles
Clouds Clear
Heat Index 77 °F
Dew Point 49 °F
Humidity 41%
Rainfall 0.00 in
Snow Depth Not available.
UV 8 out of 12
Pollen 8.00 out of 12
Air Quality Not available.
Flu Activity Not available.
METAR KLVK 032153Z 26012KT 10SM CLR 26/08 A2986 RMK AO2 SLP108 T02560078
Pressure 29.85 in
Visibility 10.0 miles
Clouds Clear
Heat Index 77 °F
Dew Point 49 °F
Humidity 41%
Rainfall 0.00 in
Snow Depth Not available.
UV 8 out of 12
Pollen 8.00 out of 12
Air Quality Not available.
Flu Activity Not available.
METAR KLVK 032153Z 26012KT 10SM CLR 26/08 A2986 RMK AO2 SLP108 T02560078

10-Day Weather Forecast

×

Almanac

Astronomy

Sep. 03, 2015 Rise Set
Actual Time
Civil Twilight
Nautical Twilight
Astronomical Twilight
Moon
Length of Visible Light
Length of Day
Tomorrow will be .
, % of the Moon is Illuminated

Today's Extremes

State Highs State Lows

Community

WunderPhotos

Upload Photos

1,852,048 photos uploaded!

WunderBlogs® & News

Nearby

Air Quality

  Air Quality AQ Index Pollutant
Not available.

Snow Depth

Station Depth Elevation

Earthquake Activity

City Distance Mag. Time & Date
Minimum magnitude displayed is 2.5.

Coastal Water Temperatures

Place Temperature

Stations

Nearby Weather Stations

Station Location Temp. Windchill Dew Point Humidity Wind Precip. Elev Updated Type